Terminal Aerodrome Forecast
Issued by NWS Shreveport, LA

Home | Current Version | Previous Version | Text Only | Print | Product List | Glossary On
Versions: 1 2 3 4 5 6 7 8 9 10 11 12 13 14 15 16
000
FTUS44 KSHV 181758
TAFTXK
TAF
KTXK 181758Z 1818/1918 04005KT 6SM -RA BR SCT006 BKN040 OVC060
      TEMPO 1818/1820 2SM SHRA BR OVC006
     FM182000 06005KT P6SM VCSH OVC015
     FM182200 06005KT P6SM BKN025
     FM182300 05004KT P6SM BKN035
     FM190200 VRB03KT P6SM SCT035 SCT100 BKN250
     FM190900 21004KT P6SM BKN025 OVC250
     FM191300 20005KT 5SM BR OVC005
     FM191600 22009G14KT P6SM BKN035 OVC100=

USA.gov is the U.S. government's official web portal to all federal, state and local government web resources and services.